Urbe, Italy

11:53 AM CEST on October 01, 2016 (GMT +0200)
Via Flaminia | | Change Station
Active Advisory: >>

Elev 95 ft 41.96 °N, 12.49 °E | Updated 1 minute ago

Clear
Clear
70.9 °F
Feels Like 75 °F
N
0.6
Wind Variable Wind from NNE
Gusts 3.1 mph

Today
High -- | Low -- °F
--% Chance of Precip.
Yesterday
High -- | Low -- °F
Precip. -- in
Pressure 30.09 in
Visibility -9999.0 miles
Clouds
Heat Index 75 °F
Dew Point 60 °F
Humidity 67%
Rainfall 0.00 in
Snow Depth Not available.
7:07 AM 6:51 PM
New Moon, 0% visible
METAR LIRA 010920Z 18006KT 140V220 CAVOK 23/12 Q1019
Pressure 30.09 in
Visibility -9999.0 miles
Clouds
Heat Index 75 °F
Dew Point 60 °F
Humidity 67%
Rainfall 0.00 in
Snow Depth Not available.
7:07 AM 6:51 PM
New Moon, 0% visible
METAR LIRA 010920Z 18006KT 140V220 CAVOK 23/12 Q1019

10-Day Weather Forecast

×

Almanac

Astronomy

Oct. 01, 2016 Rise Set
Actual Time
Civil Twilight
Nautical Twilight
Astronomical Twilight
Moon
Length of Visible Light
Length of Day
Tomorrow will be .
, % of the Moon is Illuminated

Today's Extremes

Country Highs Country Lows

Community

WunderPhotos

Upload Photos

1,942,907 photos uploaded!

WunderBlog® & News

Nearby

Air Quality

  Air Quality AQ Index Pollutant
Not available.

Snow Depth

Station Depth Elevation

Earthquake Activity

City Distance Mag. Time & Date
Minimum magnitude displayed is 2.5.

Coastal Water Temperatures

Place Temperature

Stations

Nearby Weather Stations

Station Location Temp. Windchill Dew Point Humidity Wind Precip. Elev Updated Type